sensor_id;sensor_type;location;lat;lon;timestamp;P1;durP1;ratioP1;P2;durP2;ratioP2
3567;SDS011;1798;48.486;9.232;2022-07-23T00:01:19;13.83;;;10.70;;
3567;SDS011;1798;48.486;9.232;2022-07-23T00:03:46;17.93;;;9.50;;
3567;SDS011;1798;48.486;9.232;2022-07-23T00:06:13;14.27;;;10.77;;
3567;SDS011;1798;48.486;9.232;2022-07-23T00:08:40;18.77;;;10.40;;
3567;SDS011;1798;48.486;9.232;2022-07-23T00:11:07;11.97;;;9.57;;
3567;SDS011;1798;48.486;9.232;2022-07-23T00:13:34;11.60;;;9.80;;
3567;SDS011;1798;48.486;9.232;2022-07-23T00:16:02;19.77;;;10.20;;
3567;SDS011;1798;48.486;9.232;2022-07-23T00:18:30;19.30;;;10.23;;
3567;SDS011;1798;48.486;9.232;2022-07-23T00:20:57;14.73;;;9.93;;
3567;SDS011;1798;48.486;9.232;2022-07-23T00:23:24;19.23;;;8.57;;
3567;SDS011;1798;48.486;9.232;2022-07-23T00:25:52;14.73;;;8.90;;
3567;SDS011;1798;48.486;9.232;2022-07-23T00:28:19;11.70;;;9.37;;
3567;SDS011;1798;48.486;9.232;2022-07-23T00:30:46;16.80;;;9.53;;
3567;SDS011;1798;48.486;9.232;2022-07-23T00:33:15;35.10;;;10.60;;
3567;SDS011;1798;48.486;9.232;2022-07-23T00:35:41;19.73;;;11.07;;
3567;SDS011;1798;48.486;9.232;2022-07-23T00:38:09;17.00;;;9.23;;
3567;SDS011;1798;48.486;9.232;2022-07-23T00:40:37;18.67;;;9.53;;
3567;SDS011;1798;48.486;9.232;2022-07-23T00:43:04;13.77;;;8.93;;
3567;SDS011;1798;48.486;9.232;2022-07-23T00:45:31;19.60;;;10.47;;
3567;SDS011;1798;48.486;9.232;2022-07-23T00:47:58;14.67;;;9.60;;
3567;SDS011;1798;48.486;9.232;2022-07-23T00:50:27;16.17;;;9.00;;
3567;SDS011;1798;48.486;9.232;2022-07-23T00:52:54;14.17;;;9.77;;
3567;SDS011;1798;48.486;9.232;2022-07-23T00:55:21;12.30;;;8.47;;
3567;SDS011;1798;48.486;9.232;2022-07-23T00:57:48;17.67;;;10.10;;
3567;SDS011;1798;48.486;9.232;2022-07-23T01:00:16;12.87;;;9.43;;
3567;SDS011;1798;48.486;9.232;2022-07-23T01:02:44;12.97;;;8.70;;
3567;SDS011;1798;48.486;9.232;2022-07-23T01:05:10;11.67;;;8.80;;
3567;SDS011;1798;48.486;9.232;2022-07-23T01:07:39;13.43;;;9.10;;
3567;SDS011;1798;48.486;9.232;2022-07-23T01:10:07;17.20;;;8.73;;
3567;SDS011;1798;48.486;9.232;2022-07-23T01:12:48;13.97;;;9.30;;
3567;SDS011;1798;48.486;9.232;2022-07-23T01:15:15;21.63;;;9.40;;
3567;SDS011;1798;48.486;9.232;2022-07-23T01:17:42;16.83;;;9.43;;
3567;SDS011;1798;48.486;9.232;2022-07-23T01:20:09;22.60;;;9.40;;
3567;SDS011;1798;48.486;9.232;2022-07-23T01:22:38;17.40;;;9.50;;
3567;SDS011;1798;48.486;9.232;2022-07-23T01:25:06;11.60;;;8.23;;
3567;SDS011;1798;48.486;9.232;2022-07-23T01:27:34;20.57;;;9.70;;
3567;SDS011;1798;48.486;9.232;2022-07-23T01:30:01;11.03;;;9.30;;
3567;SDS011;1798;48.486;9.232;2022-07-23T01:32:28;24.70;;;9.77;;
3567;SDS011;1798;48.486;9.232;2022-07-23T01:34:55;16.60;;;9.23;;
3567;SDS011;1798;48.486;9.232;2022-07-23T01:37:22;16.50;;;9.20;;
3567;SDS011;1798;48.486;9.232;2022-07-23T01:39:50;19.83;;;9.50;;
3567;SDS011;1798;48.486;9.232;2022-07-23T01:42:17;15.10;;;9.30;;
3567;SDS011;1798;48.486;9.232;2022-07-23T01:44:44;15.10;;;9.23;;
3567;SDS011;1798;48.486;9.232;2022-07-23T01:47:11;13.30;;;9.47;;
3567;SDS011;1798;48.486;9.232;2022-07-23T01:49:38;12.10;;;9.70;;
3567;SDS011;1798;48.486;9.232;2022-07-23T01:52:05;16.57;;;9.10;;
3567;SDS011;1798;48.486;9.232;2022-07-23T01:54:36;13.37;;;9.40;;
3567;SDS011;1798;48.486;9.232;2022-07-23T01:57:05;15.07;;;9.00;;
3567;SDS011;1798;48.486;9.232;2022-07-23T01:59:32;12.50;;;8.83;;
3567;SDS011;1798;48.486;9.232;2022-07-23T02:01:59;12.87;;;9.80;;
3567;SDS011;1798;48.486;9.232;2022-07-23T02:04:26;13.07;;;9.27;;
3567;SDS011;1798;48.486;9.232;2022-07-23T02:06:53;15.47;;;8.90;;
3567;SDS011;1798;48.486;9.232;2022-07-23T02:09:21;13.53;;;9.67;;
3567;SDS011;1798;48.486;9.232;2022-07-23T02:11:48;23.70;;;9.73;;
3567;SDS011;1798;48.486;9.232;2022-07-23T02:14:16;17.80;;;10.23;;
3567;SDS011;1798;48.486;9.232;2022-07-23T02:16:43;14.80;;;9.77;;
3567;SDS011;1798;48.486;9.232;2022-07-23T02:19:10;15.00;;;8.87;;
3567;SDS011;1798;48.486;9.232;2022-07-23T02:21:37;16.93;;;8.53;;
3567;SDS011;1798;48.486;9.232;2022-07-23T02:24:04;10.73;;;8.67;;
3567;SDS011;1798;48.486;9.232;2022-07-23T02:26:31;12.97;;;9.03;;
3567;SDS011;1798;48.486;9.232;2022-07-23T02:28:59;11.27;;;8.40;;
3567;SDS011;1798;48.486;9.232;2022-07-23T02:31:29;11.97;;;8.40;;
3567;SDS011;1798;48.486;9.232;2022-07-23T02:33:56;21.07;;;9.60;;
3567;SDS011;1798;48.486;9.232;2022-07-23T02:36:23;16.50;;;9.37;;
3567;SDS011;1798;48.486;9.232;2022-07-23T02:38:50;16.57;;;8.20;;
3567;SDS011;1798;48.486;9.232;2022-07-23T02:41:17;15.70;;;9.30;;
3567;SDS011;1798;48.486;9.232;2022-07-23T02:43:44;19.10;;;9.13;;
3567;SDS011;1798;48.486;9.232;2022-07-23T02:46:11;14.93;;;8.37;;
3567;SDS011;1798;48.486;9.232;2022-07-23T02:48:39;13.90;;;8.67;;
3567;SDS011;1798;48.486;9.232;2022-07-23T02:51:06;15.90;;;9.40;;
3567;SDS011;1798;48.486;9.232;2022-07-23T02:53:33;12.97;;;9.10;;
3567;SDS011;1798;48.486;9.232;2022-07-23T02:55:59;13.93;;;9.47;;
3567;SDS011;1798;48.486;9.232;2022-07-23T02:58:26;20.13;;;9.90;;
3567;SDS011;1798;48.486;9.232;2022-07-23T03:00:53;12.90;;;9.10;;
3567;SDS011;1798;48.486;9.232;2022-07-23T03:03:20;12.47;;;9.13;;
3567;SDS011;1798;48.486;9.232;2022-07-23T03:05:48;12.13;;;9.80;;
3567;SDS011;1798;48.486;9.232;2022-07-23T03:08:15;14.63;;;10.77;;
3567;SDS011;1798;48.486;9.232;2022-07-23T03:10:42;18.30;;;11.03;;
3567;SDS011;1798;48.486;9.232;2022-07-23T03:13:09;21.07;;;8.80;;
3567;SDS011;1798;48.486;9.232;2022-07-23T03:15:36;15.00;;;10.93;;
3567;SDS011;1798;48.486;9.232;2022-07-23T03:18:03;22.53;;;11.97;;
3567;SDS011;1798;48.486;9.232;2022-07-23T03:20:30;15.20;;;10.17;;
3567;SDS011;1798;48.486;9.232;2022-07-23T03:22:58;15.70;;;10.07;;
3567;SDS011;1798;48.486;9.232;2022-07-23T03:25:25;14.40;;;10.50;;
3567;SDS011;1798;48.486;9.232;2022-07-23T03:27:52;23.40;;;10.50;;
3567;SDS011;1798;48.486;9.232;2022-07-23T03:30:19;17.57;;;9.70;;
3567;SDS011;1798;48.486;9.232;2022-07-23T03:32:46;26.13;;;9.90;;
3567;SDS011;1798;48.486;9.232;2022-07-23T03:35:13;18.80;;;10.00;;
3567;SDS011;1798;48.486;9.232;2022-07-23T03:37:40;16.03;;;10.77;;
3567;SDS011;1798;48.486;9.232;2022-07-23T03:40:09;23.40;;;11.07;;
3567;SDS011;1798;48.486;9.232;2022-07-23T03:42:36;14.30;;;9.80;;
3567;SDS011;1798;48.486;9.232;2022-07-23T03:45:05;15.37;;;10.43;;
3567;SDS011;1798;48.486;9.232;2022-07-23T03:47:32;22.87;;;9.20;;
3567;SDS011;1798;48.486;9.232;2022-07-23T03:49:59;21.63;;;9.13;;
3567;SDS011;1798;48.486;9.232;2022-07-23T03:52:26;16.27;;;10.03;;
3567;SDS011;1798;48.486;9.232;2022-07-23T03:54:53;16.13;;;9.57;;
3567;SDS011;1798;48.486;9.232;2022-07-23T03:57:21;23.50;;;9.80;;
3567;SDS011;1798;48.486;9.232;2022-07-23T03:59:48;12.83;;;9.27;;
3567;SDS011;1798;48.486;9.232;2022-07-23T04:02:15;12.33;;;9.13;;
3567;SDS011;1798;48.486;9.232;2022-07-23T04:04:41;12.80;;;10.10;;
3567;SDS011;1798;48.486;9.232;2022-07-23T04:07:08;15.23;;;10.40;;
3567;SDS011;1798;48.486;9.232;2022-07-23T04:09:35;14.20;;;9.73;;
3567;SDS011;1798;48.486;9.232;2022-07-23T04:12:02;21.93;;;11.20;;
3567;SDS011;1798;48.486;9.232;2022-07-23T04:14:31;25.40;;;12.10;;
3567;SDS011;1798;48.486;9.232;2022-07-23T04:16:57;15.67;;;9.30;;
3567;SDS011;1798;48.486;9.232;2022-07-23T04:19:24;23.30;;;11.27;;
3567;SDS011;1798;48.486;9.232;2022-07-23T04:21:51;14.53;;;10.30;;
3567;SDS011;1798;48.486;9.232;2022-07-23T04:24:18;15.00;;;11.07;;
3567;SDS011;1798;48.486;9.232;2022-07-23T04:26:45;16.30;;;10.97;;
3567;SDS011;1798;48.486;9.232;2022-07-23T04:29:12;14.90;;;10.80;;
3567;SDS011;1798;48.486;9.232;2022-07-23T04:31:40;16.50;;;10.97;;
3567;SDS011;1798;48.486;9.232;2022-07-23T04:34:07;16.60;;;11.00;;
3567;SDS011;1798;48.486;9.232;2022-07-23T04:36:34;13.60;;;10.30;;
3567;SDS011;1798;48.486;9.232;2022-07-23T04:39:01;20.17;;;11.63;;
3567;SDS011;1798;48.486;9.232;2022-07-23T04:41:28;25.30;;;11.10;;
3567;SDS011;1798;48.486;9.232;2022-07-23T04:43:54;18.30;;;10.13;;
3567;SDS011;1798;48.486;9.232;2022-07-23T04:46:21;14.80;;;11.13;;
3567;SDS011;1798;48.486;9.232;2022-07-23T04:48:50;13.13;;;9.80;;
3567;SDS011;1798;48.486;9.232;2022-07-23T04:51:16;16.03;;;10.60;;
3567;SDS011;1798;48.486;9.232;2022-07-23T04:53:43;17.03;;;10.07;;
3567;SDS011;1798;48.486;9.232;2022-07-23T04:56:10;26.43;;;10.33;;
3567;SDS011;1798;48.486;9.232;2022-07-23T04:58:37;11.57;;;9.30;;
3567;SDS011;1798;48.486;9.232;2022-07-23T05:01:04;27.90;;;11.57;;
3567;SDS011;1798;48.486;9.232;2022-07-23T05:03:30;21.53;;;11.37;;
3567;SDS011;1798;48.486;9.232;2022-07-23T05:05:59;18.00;;;9.90;;
3567;SDS011;1798;48.486;9.232;2022-07-23T05:08:26;18.37;;;11.10;;
3567;SDS011;1798;48.486;9.232;2022-07-23T05:10:52;13.37;;;10.80;;
3567;SDS011;1798;48.486;9.232;2022-07-23T05:13:19;13.97;;;10.03;;
3567;SDS011;1798;48.486;9.232;2022-07-23T05:15:46;18.70;;;10.13;;
3567;SDS011;1798;48.486;9.232;2022-07-23T05:18:13;15.30;;;10.70;;
3567;SDS011;1798;48.486;9.232;2022-07-23T05:20:40;16.57;;;10.37;;
3567;SDS011;1798;48.486;9.232;2022-07-23T05:23:08;23.33;;;12.30;;
3567;SDS011;1798;48.486;9.232;2022-07-23T05:25:36;19.97;;;11.90;;
3567;SDS011;1798;48.486;9.232;2022-07-23T05:28:03;12.87;;;8.03;;
3567;SDS011;1798;48.486;9.232;2022-07-23T05:30:30;20.23;;;11.20;;
3567;SDS011;1798;48.486;9.232;2022-07-23T05:32:56;24.73;;;10.87;;
3567;SDS011;1798;48.486;9.232;2022-07-23T05:35:23;21.00;;;11.40;;
3567;SDS011;1798;48.486;9.232;2022-07-23T05:37:50;19.00;;;11.03;;
3567;SDS011;1798;48.486;9.232;2022-07-23T05:40:21;22.03;;;11.73;;
3567;SDS011;1798;48.486;9.232;2022-07-23T05:42:48;19.67;;;11.30;;
3567;SDS011;1798;48.486;9.232;2022-07-23T05:45:15;22.60;;;12.17;;
3567;SDS011;1798;48.486;9.232;2022-07-23T05:47:43;17.53;;;11.13;;
3567;SDS011;1798;48.486;9.232;2022-07-23T05:50:10;26.53;;;10.33;;
3567;SDS011;1798;48.486;9.232;2022-07-23T05:52:38;19.90;;;10.03;;
3567;SDS011;1798;48.486;9.232;2022-07-23T05:55:06;14.93;;;10.23;;
3567;SDS011;1798;48.486;9.232;2022-07-23T05:57:35;20.20;;;11.33;;
3567;SDS011;1798;48.486;9.232;2022-07-23T06:00:03;15.53;;;10.30;;
3567;SDS011;1798;48.486;9.232;2022-07-23T06:02:31;13.90;;;9.57;;
3567;SDS011;1798;48.486;9.232;2022-07-23T06:04:58;16.67;;;11.20;;
3567;SDS011;1798;48.486;9.232;2022-07-23T06:07:24;14.37;;;10.77;;
3567;SDS011;1798;48.486;9.232;2022-07-23T06:09:51;26.90;;;11.00;;
3567;SDS011;1798;48.486;9.232;2022-07-23T06:12:18;12.97;;;10.20;;
3567;SDS011;1798;48.486;9.232;2022-07-23T06:14:47;12.70;;;9.53;;
3567;SDS011;1798;48.486;9.232;2022-07-23T06:17:14;17.10;;;10.40;;
3567;SDS011;1798;48.486;9.232;2022-07-23T06:19:41;25.37;;;10.73;;
3567;SDS011;1798;48.486;9.232;2022-07-23T06:22:08;10.87;;;8.67;;
3567;SDS011;1798;48.486;9.232;2022-07-23T06:24:35;12.10;;;8.37;;
3567;SDS011;1798;48.486;9.232;2022-07-23T06:27:02;12.20;;;8.80;;
3567;SDS011;1798;48.486;9.232;2022-07-23T06:29:29;16.70;;;9.67;;
3567;SDS011;1798;48.486;9.232;2022-07-23T06:31:58;12.90;;;9.50;;
3567;SDS011;1798;48.486;9.232;2022-07-23T06:34:25;11.77;;;8.67;;
3567;SDS011;1798;48.486;9.232;2022-07-23T06:36:52;15.17;;;10.40;;
3567;SDS011;1798;48.486;9.232;2022-07-23T06:39:19;20.27;;;9.90;;
3567;SDS011;1798;48.486;9.232;2022-07-23T06:41:45;13.33;;;9.17;;
3567;SDS011;1798;48.486;9.232;2022-07-23T06:44:12;11.57;;;8.60;;
3567;SDS011;1798;48.486;9.232;2022-07-23T06:46:39;12.37;;;8.67;;
3567;SDS011;1798;48.486;9.232;2022-07-23T06:49:08;18.07;;;9.30;;
3567;SDS011;1798;48.486;9.232;2022-07-23T06:51:35;21.70;;;10.03;;
3567;SDS011;1798;48.486;9.232;2022-07-23T06:54:06;14.27;;;9.93;;
3567;SDS011;1798;48.486;9.232;2022-07-23T06:56:37;12.20;;;8.93;;
3567;SDS011;1798;48.486;9.232;2022-07-23T06:59:04;13.27;;;9.53;;
3567;SDS011;1798;48.486;9.232;2022-07-23T07:01:31;15.60;;;9.80;;
3567;SDS011;1798;48.486;9.232;2022-07-23T07:03:58;13.33;;;10.17;;
3567;SDS011;1798;48.486;9.232;2022-07-23T07:06:26;14.97;;;10.40;;
3567;SDS011;1798;48.486;9.232;2022-07-23T07:08:53;18.90;;;10.37;;
3567;SDS011;1798;48.486;9.232;2022-07-23T07:11:20;15.10;;;11.57;;
3567;SDS011;1798;48.486;9.232;2022-07-23T07:13:48;12.70;;;10.00;;
3567;SDS011;1798;48.486;9.232;2022-07-23T07:16:15;15.17;;;9.00;;
3567;SDS011;1798;48.486;9.232;2022-07-23T07:18:42;13.00;;;9.50;;
3567;SDS011;1798;48.486;9.232;2022-07-23T07:21:09;17.27;;;11.00;;
3567;SDS011;1798;48.486;9.232;2022-07-23T07:23:38;12.50;;;9.50;;
3567;SDS011;1798;48.486;9.232;2022-07-23T07:26:05;12.63;;;9.30;;
3567;SDS011;1798;48.486;9.232;2022-07-23T07:28:32;17.67;;;10.50;;
3567;SDS011;1798;48.486;9.232;2022-07-23T07:31:00;12.10;;;8.73;;
3567;SDS011;1798;48.486;9.232;2022-07-23T07:33:27;25.83;;;10.87;;
3567;SDS011;1798;48.486;9.232;2022-07-23T07:35:54;15.83;;;10.57;;
3567;SDS011;1798;48.486;9.232;2022-07-23T07:38:21;16.83;;;10.10;;
3567;SDS011;1798;48.486;9.232;2022-07-23T07:40:49;16.40;;;9.87;;
3567;SDS011;1798;48.486;9.232;2022-07-23T07:43:16;11.53;;;8.90;;
3567;SDS011;1798;48.486;9.232;2022-07-23T07:45:43;22.10;;;10.70;;
3567;SDS011;1798;48.486;9.232;2022-07-23T07:48:10;22.33;;;11.40;;
3567;SDS011;1798;48.486;9.232;2022-07-23T07:50:36;51.63;;;19.30;;
3567;SDS011;1798;48.486;9.232;2022-07-23T07:53:03;54.53;;;18.43;;
3567;SDS011;1798;48.486;9.232;2022-07-23T07:55:30;34.03;;;16.23;;
3567;SDS011;1798;48.486;9.232;2022-07-23T07:57:58;21.43;;;11.90;;
3567;SDS011;1798;48.486;9.232;2022-07-23T08:00:25;34.93;;;14.80;;
3567;SDS011;1798;48.486;9.232;2022-07-23T08:02:52;17.63;;;11.50;;
3567;SDS011;1798;48.486;9.232;2022-07-23T08:05:20;19.17;;;12.47;;
3567;SDS011;1798;48.486;9.232;2022-07-23T08:07:48;16.63;;;11.50;;
3567;SDS011;1798;48.486;9.232;2022-07-23T08:10:15;19.40;;;11.83;;
3567;SDS011;1798;48.486;9.232;2022-07-23T08:12:42;16.80;;;10.87;;
3567;SDS011;1798;48.486;9.232;2022-07-23T08:15:12;13.67;;;10.43;;
3567;SDS011;1798;48.486;9.232;2022-07-23T08:17:41;25.30;;;9.60;;
3567;SDS011;1798;48.486;9.232;2022-07-23T08:20:09;22.00;;;11.47;;
3567;SDS011;1798;48.486;9.232;2022-07-23T08:22:43;15.37;;;10.00;;
3567;SDS011;1798;48.486;9.232;2022-07-23T08:25:11;21.93;;;13.23;;
3567;SDS011;1798;48.486;9.232;2022-07-23T08:27:39;25.20;;;14.23;;
3567;SDS011;1798;48.486;9.232;2022-07-23T08:30:06;17.17;;;10.90;;
3567;SDS011;1798;48.486;9.232;2022-07-23T08:32:37;12.93;;;10.83;;
3567;SDS011;1798;48.486;9.232;2022-07-23T08:35:14;16.80;;;10.43;;
3567;SDS011;1798;48.486;9.232;2022-07-23T08:37:40;19.73;;;11.20;;
3567;SDS011;1798;48.486;9.232;2022-07-23T08:40:08;15.03;;;10.47;;
3567;SDS011;1798;48.486;9.232;2022-07-23T08:42:35;19.40;;;10.20;;
3567;SDS011;1798;48.486;9.232;2022-07-23T08:45:02;22.37;;;10.70;;
3567;SDS011;1798;48.486;9.232;2022-07-23T08:47:29;15.97;;;11.60;;
3567;SDS011;1798;48.486;9.232;2022-07-23T08:49:58;15.83;;;10.87;;
3567;SDS011;1798;48.486;9.232;2022-07-23T08:52:26;16.60;;;10.30;;
3567;SDS011;1798;48.486;9.232;2022-07-23T08:55:00;17.60;;;10.70;;
3567;SDS011;1798;48.486;9.232;2022-07-23T08:57:28;18.03;;;11.63;;
3567;SDS011;1798;48.486;9.232;2022-07-23T08:59:55;15.37;;;11.83;;
3567;SDS011;1798;48.486;9.232;2022-07-23T09:02:26;15.20;;;11.37;;
3567;SDS011;1798;48.486;9.232;2022-07-23T09:04:53;21.43;;;11.10;;
3567;SDS011;1798;48.486;9.232;2022-07-23T09:07:22;21.60;;;12.57;;
3567;SDS011;1798;48.486;9.232;2022-07-23T09:09:54;34.97;;;13.20;;
3567;SDS011;1798;48.486;9.232;2022-07-23T09:12:34;20.40;;;11.17;;
3567;SDS011;1798;48.486;9.232;2022-07-23T09:15:05;14.37;;;11.03;;
3567;SDS011;1798;48.486;9.232;2022-07-23T09:17:38;17.97;;;12.70;;
3567;SDS011;1798;48.486;9.232;2022-07-23T09:20:10;23.20;;;12.97;;
3567;SDS011;1798;48.486;9.232;2022-07-23T09:22:40;18.77;;;13.10;;
3567;SDS011;1798;48.486;9.232;2022-07-23T09:25:13;16.77;;;11.47;;
3567;SDS011;1798;48.486;9.232;2022-07-23T09:27:49;17.10;;;12.63;;
3567;SDS011;1798;48.486;9.232;2022-07-23T09:30:20;15.97;;;11.50;;
3567;SDS011;1798;48.486;9.232;2022-07-23T09:33:07;18.20;;;13.00;;
3567;SDS011;1798;48.486;9.232;2022-07-23T09:35:49;20.67;;;12.67;;
3567;SDS011;1798;48.486;9.232;2022-07-23T09:38:19;20.07;;;12.50;;
3567;SDS011;1798;48.486;9.232;2022-07-23T09:40:47;18.33;;;11.50;;
3567;SDS011;1798;48.486;9.232;2022-07-23T09:43:32;22.10;;;12.43;;
3567;SDS011;1798;48.486;9.232;2022-07-23T09:48:44;20.63;;;12.43;;
3567;SDS011;1798;48.486;9.232;2022-07-23T09:51:11;17.77;;;12.57;;
3567;SDS011;1798;48.486;9.232;2022-07-23T09:53:40;22.63;;;12.60;;
3567;SDS011;1798;48.486;9.232;2022-07-23T09:56:07;16.40;;;11.30;;
3567;SDS011;1798;48.486;9.232;2022-07-23T09:58:34;23.60;;;13.33;;
3567;SDS011;1798;48.486;9.232;2022-07-23T10:01:08;19.47;;;13.00;;
3567;SDS011;1798;48.486;9.232;2022-07-23T10:03:35;21.80;;;14.17;;
3567;SDS011;1798;48.486;9.232;2022-07-23T10:06:03;18.60;;;13.20;;
3567;SDS011;1798;48.486;9.232;2022-07-23T10:08:30;18.93;;;11.33;;
3567;SDS011;1798;48.486;9.232;2022-07-23T10:10:59;15.97;;;12.43;;
3567;SDS011;1798;48.486;9.232;2022-07-23T10:13:27;18.50;;;10.63;;
3567;SDS011;1798;48.486;9.232;2022-07-23T10:16:11;25.40;;;12.70;;
3567;SDS011;1798;48.486;9.232;2022-07-23T10:18:38;19.30;;;13.60;;
3567;SDS011;1798;48.486;9.232;2022-07-23T10:21:07;17.07;;;12.10;;
3567;SDS011;1798;48.486;9.232;2022-07-23T10:23:35;17.50;;;11.77;;
3567;SDS011;1798;48.486;9.232;2022-07-23T10:26:10;20.40;;;11.37;;
3567;SDS011;1798;48.486;9.232;2022-07-23T10:28:55;15.03;;;10.73;;
3567;SDS011;1798;48.486;9.232;2022-07-23T10:31:32;19.30;;;12.80;;
3567;SDS011;1798;48.486;9.232;2022-07-23T10:34:07;26.00;;;11.63;;
3567;SDS011;1798;48.486;9.232;2022-07-23T10:36:42;22.00;;;12.20;;
3567;SDS011;1798;48.486;9.232;2022-07-23T10:39:15;20.60;;;12.33;;
3567;SDS011;1798;48.486;9.232;2022-07-23T10:41:46;17.43;;;12.53;;
3567;SDS011;1798;48.486;9.232;2022-07-23T10:44:14;20.33;;;12.63;;
3567;SDS011;1798;48.486;9.232;2022-07-23T10:46:54;37.27;;;14.50;;
3567;SDS011;1798;48.486;9.232;2022-07-23T10:49:45;17.10;;;13.60;;
3567;SDS011;1798;48.486;9.232;2022-07-23T10:52:16;17.00;;;13.63;;
3567;SDS011;1798;48.486;9.232;2022-07-23T10:54:44;20.13;;;12.67;;
3567;SDS011;1798;48.486;9.232;2022-07-23T10:57:14;19.83;;;13.33;;
3567;SDS011;1798;48.486;9.232;2022-07-23T11:02:51;19.00;;;13.10;;
3567;SDS011;1798;48.486;9.232;2022-07-23T11:05:20;21.60;;;14.10;;
3567;SDS011;1798;48.486;9.232;2022-07-23T11:10:45;20.77;;;13.30;;
3567;SDS011;1798;48.486;9.232;2022-07-23T11:13:27;29.70;;;13.97;;
3567;SDS011;1798;48.486;9.232;2022-07-23T11:16:14;20.60;;;13.00;;
3567;SDS011;1798;48.486;9.232;2022-07-23T11:21:43;18.77;;;13.63;;
3567;SDS011;1798;48.486;9.232;2022-07-23T11:24:17;14.13;;;12.10;;
3567;SDS011;1798;48.486;9.232;2022-07-23T11:32:02;23.03;;;13.37;;
3567;SDS011;1798;48.486;9.232;2022-07-23T11:34:31;18.80;;;11.90;;
3567;SDS011;1798;48.486;9.232;2022-07-23T11:36:58;17.90;;;12.83;;
3567;SDS011;1798;48.486;9.232;2022-07-23T11:39:25;18.60;;;12.17;;
3567;SDS011;1798;48.486;9.232;2022-07-23T11:41:56;18.83;;;12.17;;
3567;SDS011;1798;48.486;9.232;2022-07-23T11:44:24;17.80;;;12.73;;
3567;SDS011;1798;48.486;9.232;2022-07-23T11:46:57;16.50;;;12.50;;
3567;SDS011;1798;48.486;9.232;2022-07-23T11:49:26;16.90;;;11.80;;
3567;SDS011;1798;48.486;9.232;2022-07-23T11:52:02;23.33;;;13.00;;
3567;SDS011;1798;48.486;9.232;2022-07-23T11:54:31;18.13;;;12.40;;
3567;SDS011;1798;48.486;9.232;2022-07-23T11:57:02;16.80;;;12.80;;
3567;SDS011;1798;48.486;9.232;2022-07-23T11:59:33;17.33;;;12.70;;
3567;SDS011;1798;48.486;9.232;2022-07-23T12:02:09;17.40;;;13.30;;
3567;SDS011;1798;48.486;9.232;2022-07-23T12:04:38;19.20;;;12.00;;
3567;SDS011;1798;48.486;9.232;2022-07-23T12:09:53;13.90;;;11.43;;
3567;SDS011;1798;48.486;9.232;2022-07-23T12:12:26;29.13;;;12.97;;
3567;SDS011;1798;48.486;9.232;2022-07-23T12:14:54;14.93;;;12.00;;
3567;SDS011;1798;48.486;9.232;2022-07-23T12:17:27;19.70;;;13.43;;
3567;SDS011;1798;48.486;9.232;2022-07-23T12:25:10;17.70;;;13.10;;
3567;SDS011;1798;48.486;9.232;2022-07-23T12:27:38;14.57;;;11.20;;
3567;SDS011;1798;48.486;9.232;2022-07-23T12:30:16;13.97;;;11.07;;
3567;SDS011;1798;48.486;9.232;2022-07-23T12:32:51;18.97;;;12.73;;
3567;SDS011;1798;48.486;9.232;2022-07-23T12:35:23;19.13;;;12.70;;
3567;SDS011;1798;48.486;9.232;2022-07-23T12:37:59;15.77;;;12.57;;
3567;SDS011;1798;48.486;9.232;2022-07-23T12:40:35;14.63;;;11.93;;
3567;SDS011;1798;48.486;9.232;2022-07-23T12:43:08;14.60;;;11.87;;
3567;SDS011;1798;48.486;9.232;2022-07-23T12:45:43;19.60;;;12.73;;
3567;SDS011;1798;48.486;9.232;2022-07-23T12:48:18;17.40;;;11.30;;
3567;SDS011;1798;48.486;9.232;2022-07-23T12:50:54;16.43;;;12.23;;
3567;SDS011;1798;48.486;9.232;2022-07-23T12:53:23;13.77;;;11.37;;
3567;SDS011;1798;48.486;9.232;2022-07-23T12:58:41;14.07;;;11.50;;
3567;SDS011;1798;48.486;9.232;2022-07-23T13:01:09;19.33;;;12.63;;
3567;SDS011;1798;48.486;9.232;2022-07-23T13:04:04;15.13;;;11.00;;
3567;SDS011;1798;48.486;9.232;2022-07-23T13:06:33;17.93;;;12.23;;
3567;SDS011;1798;48.486;9.232;2022-07-23T13:09:03;17.97;;;12.60;;
3567;SDS011;1798;48.486;9.232;2022-07-23T13:11:43;14.30;;;12.20;;
3567;SDS011;1798;48.486;9.232;2022-07-23T13:14:15;14.10;;;10.90;;
3567;SDS011;1798;48.486;9.232;2022-07-23T13:16:45;20.43;;;10.90;;
3567;SDS011;1798;48.486;9.232;2022-07-23T13:19:12;19.07;;;13.07;;
3567;SDS011;1798;48.486;9.232;2022-07-23T13:21:43;14.30;;;11.50;;
3567;SDS011;1798;48.486;9.232;2022-07-23T13:24:14;13.80;;;11.27;;
3567;SDS011;1798;48.486;9.232;2022-07-23T13:31:53;16.53;;;11.27;;
3567;SDS011;1798;48.486;9.232;2022-07-23T13:34:19;15.93;;;11.57;;
3567;SDS011;1798;48.486;9.232;2022-07-23T13:36:46;14.97;;;12.23;;
3567;SDS011;1798;48.486;9.232;2022-07-23T13:41:54;17.77;;;12.67;;
3567;SDS011;1798;48.486;9.232;2022-07-23T13:44:23;16.00;;;12.10;;
3567;SDS011;1798;48.486;9.232;2022-07-23T13:46:50;16.30;;;12.00;;
3567;SDS011;1798;48.486;9.232;2022-07-23T13:49:21;16.67;;;13.33;;
3567;SDS011;1798;48.486;9.232;2022-07-23T13:51:50;14.80;;;10.57;;
3567;SDS011;1798;48.486;9.232;2022-07-23T13:54:17;14.47;;;11.10;;
3567;SDS011;1798;48.486;9.232;2022-07-23T13:56:44;16.93;;;10.53;;
3567;SDS011;1798;48.486;9.232;2022-07-23T13:59:11;17.80;;;10.87;;
3567;SDS011;1798;48.486;9.232;2022-07-23T14:01:41;21.07;;;9.97;;
3567;SDS011;1798;48.486;9.232;2022-07-23T14:04:11;15.57;;;11.23;;
3567;SDS011;1798;48.486;9.232;2022-07-23T14:06:42;14.03;;;10.90;;
3567;SDS011;1798;48.486;9.232;2022-07-23T14:11:52;13.87;;;10.80;;
3567;SDS011;1798;48.486;9.232;2022-07-23T14:14:19;16.33;;;12.13;;
3567;SDS011;1798;48.486;9.232;2022-07-23T14:16:47;17.00;;;11.80;;
3567;SDS011;1798;48.486;9.232;2022-07-23T14:19:16;14.53;;;10.37;;
3567;SDS011;1798;48.486;9.232;2022-07-23T14:21:45;16.37;;;12.67;;
3567;SDS011;1798;48.486;9.232;2022-07-23T14:24:13;52.10;;;11.57;;
3567;SDS011;1798;48.486;9.232;2022-07-23T14:26:40;16.47;;;10.40;;
3567;SDS011;1798;48.486;9.232;2022-07-23T14:29:07;39.07;;;10.37;;
3567;SDS011;1798;48.486;9.232;2022-07-23T14:31:34;23.23;;;12.13;;
3567;SDS011;1798;48.486;9.232;2022-07-23T14:34:01;19.50;;;13.40;;
3567;SDS011;1798;48.486;9.232;2022-07-23T14:36:28;23.37;;;12.17;;
3567;SDS011;1798;48.486;9.232;2022-07-23T14:38:56;20.87;;;11.33;;
3567;SDS011;1798;48.486;9.232;2022-07-23T14:41:23;17.90;;;12.90;;
3567;SDS011;1798;48.486;9.232;2022-07-23T14:43:50;18.43;;;12.00;;
3567;SDS011;1798;48.486;9.232;2022-07-23T14:46:20;18.70;;;10.60;;
3567;SDS011;1798;48.486;9.232;2022-07-23T14:48:47;12.80;;;10.00;;
3567;SDS011;1798;48.486;9.232;2022-07-23T14:51:14;14.10;;;11.90;;
3567;SDS011;1798;48.486;9.232;2022-07-23T14:54:13;17.70;;;11.50;;
3567;SDS011;1798;48.486;9.232;2022-07-23T14:56:40;21.37;;;12.27;;
3567;SDS011;1798;48.486;9.232;2022-07-23T14:59:08;18.53;;;11.60;;
3567;SDS011;1798;48.486;9.232;2022-07-23T15:01:43;32.00;;;12.63;;
3567;SDS011;1798;48.486;9.232;2022-07-23T15:04:10;17.03;;;12.03;;
3567;SDS011;1798;48.486;9.232;2022-07-23T15:06:46;14.03;;;11.37;;
3567;SDS011;1798;48.486;9.232;2022-07-23T15:09:16;18.20;;;12.20;;
3567;SDS011;1798;48.486;9.232;2022-07-23T15:11:43;18.60;;;13.00;;
3567;SDS011;1798;48.486;9.232;2022-07-23T15:14:13;21.50;;;13.43;;
3567;SDS011;1798;48.486;9.232;2022-07-23T15:16:40;21.63;;;13.27;;
3567;SDS011;1798;48.486;9.232;2022-07-23T15:19:07;19.30;;;12.30;;
3567;SDS011;1798;48.486;9.232;2022-07-23T15:21:38;16.20;;;12.10;;
3567;SDS011;1798;48.486;9.232;2022-07-23T15:24:05;21.13;;;14.53;;
3567;SDS011;1798;48.486;9.232;2022-07-23T15:26:34;18.40;;;12.83;;
3567;SDS011;1798;48.486;9.232;2022-07-23T15:29:08;18.97;;;12.23;;
3567;SDS011;1798;48.486;9.232;2022-07-23T15:31:35;16.70;;;12.47;;
3567;SDS011;1798;48.486;9.232;2022-07-23T15:34:02;18.77;;;13.70;;
3567;SDS011;1798;48.486;9.232;2022-07-23T15:36:33;18.47;;;13.63;;
3567;SDS011;1798;48.486;9.232;2022-07-23T15:39:02;17.57;;;13.37;;
3567;SDS011;1798;48.486;9.232;2022-07-23T15:41:34;18.07;;;12.43;;